sensor_id;sensor_type;location;lat;lon;timestamp;pressure;altitude;pressure_sealevel;temperature;humidity
12987;BME280;58897;51.960;5.582;2024-02-26T00:01:46;99697.50;;;5.04;100.00
12987;BME280;58897;51.960;5.582;2024-02-26T00:04:13;99702.25;;;5.10;100.00
12987;BME280;58897;51.960;5.582;2024-02-26T00:06:40;99707.91;;;5.07;100.00
12987;BME280;58897;51.960;5.582;2024-02-26T00:09:10;99708.22;;;5.04;100.00
12987;BME280;58897;51.960;5.582;2024-02-26T00:11:37;99709.53;;;5.00;100.00
12987;BME280;58897;51.960;5.582;2024-02-26T00:14:04;99699.81;;;4.99;100.00
12987;BME280;58897;51.960;5.582;2024-02-26T00:16:30;99707.84;;;4.99;100.00
12987;BME280;58897;51.960;5.582;2024-02-26T00:18:57;99708.69;;;4.99;100.00
12987;BME280;58897;51.960;5.582;2024-02-26T00:21:24;99700.78;;;4.98;100.00
12987;BME280;58897;51.960;5.582;2024-02-26T00:23:52;99702.59;;;4.89;100.00
12987;BME280;58897;51.960;5.582;2024-02-26T00:26:19;99697.06;;;4.91;100.00
12987;BME280;58897;51.960;5.582;2024-02-26T00:28:46;99701.50;;;5.00;100.00
12987;BME280;58897;51.960;5.582;2024-02-26T00:31:13;99697.44;;;4.96;100.00
12987;BME280;58897;51.960;5.582;2024-02-26T00:33:39;99703.16;;;5.01;100.00
12987;BME280;58897;51.960;5.582;2024-02-26T00:36:06;99704.00;;;5.02;100.00
12987;BME280;58897;51.960;5.582;2024-02-26T00:38:33;99704.72;;;4.86;100.00
12987;BME280;58897;51.960;5.582;2024-02-26T00:41:00;99696.66;;;5.04;100.00
12987;BME280;58897;51.960;5.582;2024-02-26T00:43:26;99698.97;;;4.98;100.00
12987;BME280;58897;51.960;5.582;2024-02-26T00:45:53;99695.97;;;5.02;100.00
12987;BME280;58897;51.960;5.582;2024-02-26T00:48:20;99689.72;;;4.93;100.00
12987;BME280;58897;51.960;5.582;2024-02-26T00:50:46;99689.28;;;4.97;100.00
12987;BME280;58897;51.960;5.582;2024-02-26T00:53:13;99686.84;;;4.86;100.00
12987;BME280;58897;51.960;5.582;2024-02-26T00:55:40;99691.44;;;4.76;100.00
12987;BME280;58897;51.960;5.582;2024-02-26T00:58:06;99686.22;;;4.92;100.00
12987;BME280;58897;51.960;5.582;2024-02-26T01:00:33;99688.13;;;5.00;100.00
12987;BME280;58897;51.960;5.582;2024-02-26T01:02:59;99691.09;;;4.97;100.00
12987;BME280;58897;51.960;5.582;2024-02-26T01:05:26;99684.53;;;4.91;100.00
12987;BME280;58897;51.960;5.582;2024-02-26T01:07:53;99683.56;;;4.92;100.00
12987;BME280;58897;51.960;5.582;2024-02-26T01:10:20;99686.22;;;4.92;100.00
12987;BME280;58897;51.960;5.582;2024-02-26T01:12:46;99682.91;;;4.98;100.00
12987;BME280;58897;51.960;5.582;2024-02-26T01:15:14;99679.06;;;5.01;100.00
12987;BME280;58897;51.960;5.582;2024-02-26T01:17:41;99678.34;;;4.91;100.00
12987;BME280;58897;51.960;5.582;2024-02-26T01:20:08;99673.03;;;4.99;100.00
12987;BME280;58897;51.960;5.582;2024-02-26T01:22:36;99686.25;;;5.00;100.00
12987;BME280;58897;51.960;5.582;2024-02-26T01:25:03;99685.28;;;5.02;100.00
12987;BME280;58897;51.960;5.582;2024-02-26T01:27:29;99674.09;;;5.06;100.00
12987;BME280;58897;51.960;5.582;2024-02-26T01:29:56;99671.16;;;4.91;100.00
12987;BME280;58897;51.960;5.582;2024-02-26T01:32:22;99676.09;;;5.04;100.00
12987;BME280;58897;51.960;5.582;2024-02-26T01:34:49;99675.34;;;4.94;100.00
12987;BME280;58897;51.960;5.582;2024-02-26T01:37:16;99687.41;;;4.98;100.00
12987;BME280;58897;51.960;5.582;2024-02-26T01:39:42;99684.59;;;4.99;100.00
12987;BME280;58897;51.960;5.582;2024-02-26T01:42:09;99683.91;;;4.97;100.00
12987;BME280;58897;51.960;5.582;2024-02-26T01:44:36;99685.81;;;5.05;100.00
12987;BME280;58897;51.960;5.582;2024-02-26T01:47:05;99697.13;;;4.99;100.00
12987;BME280;58897;51.960;5.582;2024-02-26T01:49:34;99698.53;;;5.03;100.00
12987;BME280;58897;51.960;5.582;2024-02-26T01:52:02;99703.94;;;4.93;100.00
12987;BME280;58897;51.960;5.582;2024-02-26T01:54:30;99697.69;;;5.03;100.00
12987;BME280;58897;51.960;5.582;2024-02-26T01:56:57;99705.16;;;4.99;100.00
12987;BME280;58897;51.960;5.582;2024-02-26T01:59:24;99712.88;;;5.02;100.00
12987;BME280;58897;51.960;5.582;2024-02-26T02:01:54;99715.78;;;5.09;100.00
12987;BME280;58897;51.960;5.582;2024-02-26T02:04:23;99714.41;;;5.05;100.00
12987;BME280;58897;51.960;5.582;2024-02-26T02:06:50;99724.13;;;5.06;100.00
12987;BME280;58897;51.960;5.582;2024-02-26T02:09:18;99737.91;;;5.11;100.00
12987;BME280;58897;51.960;5.582;2024-02-26T02:11:46;99741.28;;;4.95;100.00
12987;BME280;58897;51.960;5.582;2024-02-26T02:14:14;99745.84;;;5.03;100.00
12987;BME280;58897;51.960;5.582;2024-02-26T02:16:41;99738.50;;;5.05;100.00
12987;BME280;58897;51.960;5.582;2024-02-26T02:19:08;99729.69;;;5.12;100.00
12987;BME280;58897;51.960;5.582;2024-02-26T02:21:34;99734.06;;;5.13;100.00
12987;BME280;58897;51.960;5.582;2024-02-26T02:24:01;99738.03;;;5.09;100.00
12987;BME280;58897;51.960;5.582;2024-02-26T02:26:28;99747.44;;;5.13;100.00
12987;BME280;58897;51.960;5.582;2024-02-26T02:28:54;99744.00;;;5.21;100.00
12987;BME280;58897;51.960;5.582;2024-02-26T02:31:21;99736.44;;;5.16;100.00
12987;BME280;58897;51.960;5.582;2024-02-26T02:33:48;99748.59;;;5.11;100.00
12987;BME280;58897;51.960;5.582;2024-02-26T02:36:15;99742.72;;;5.07;100.00
12987;BME280;58897;51.960;5.582;2024-02-26T02:38:49;99741.63;;;5.18;100.00
12987;BME280;58897;51.960;5.582;2024-02-26T02:41:18;99739.41;;;5.13;100.00
12987;BME280;58897;51.960;5.582;2024-02-26T02:43:45;99733.22;;;5.13;100.00
12987;BME280;58897;51.960;5.582;2024-02-26T02:46:12;99740.63;;;5.19;100.00
12987;BME280;58897;51.960;5.582;2024-02-26T02:48:38;99745.59;;;5.14;100.00
12987;BME280;58897;51.960;5.582;2024-02-26T02:51:05;99748.81;;;5.17;100.00
12987;BME280;58897;51.960;5.582;2024-02-26T02:53:32;99740.78;;;5.17;100.00
12987;BME280;58897;51.960;5.582;2024-02-26T02:55:59;99759.22;;;5.20;100.00
12987;BME280;58897;51.960;5.582;2024-02-26T02:58:25;99748.50;;;5.20;100.00
12987;BME280;58897;51.960;5.582;2024-02-26T03:00:52;99748.25;;;5.14;100.00
12987;BME280;58897;51.960;5.582;2024-02-26T03:03:21;99750.13;;;5.13;100.00
12987;BME280;58897;51.960;5.582;2024-02-26T03:05:50;99746.53;;;5.05;100.00
12987;BME280;58897;51.960;5.582;2024-02-26T03:08:17;99753.34;;;4.99;100.00
12987;BME280;58897;51.960;5.582;2024-02-26T03:10:45;99751.34;;;5.01;100.00
12987;BME280;58897;51.960;5.582;2024-02-26T03:13:12;99765.81;;;5.08;100.00
12987;BME280;58897;51.960;5.582;2024-02-26T03:15:39;99756.63;;;5.11;100.00
12987;BME280;58897;51.960;5.582;2024-02-26T03:18:06;99761.75;;;5.04;100.00
12987;BME280;58897;51.960;5.582;2024-02-26T03:20:32;99764.97;;;5.08;100.00
12987;BME280;58897;51.960;5.582;2024-02-26T03:22:59;99775.00;;;5.06;100.00
12987;BME280;58897;51.960;5.582;2024-02-26T03:25:26;99762.91;;;5.02;100.00
12987;BME280;58897;51.960;5.582;2024-02-26T03:27:52;99766.50;;;5.10;100.00
12987;BME280;58897;51.960;5.582;2024-02-26T03:30:19;99766.56;;;5.00;100.00
12987;BME280;58897;51.960;5.582;2024-02-26T03:32:46;99774.28;;;5.04;100.00
12987;BME280;58897;51.960;5.582;2024-02-26T03:35:14;99779.81;;;5.02;100.00
12987;BME280;58897;51.960;5.582;2024-02-26T03:37:41;99779.50;;;5.05;100.00
12987;BME280;58897;51.960;5.582;2024-02-26T03:40:07;99782.22;;;4.95;100.00
12987;BME280;58897;51.960;5.582;2024-02-26T03:42:34;99774.28;;;5.04;100.00
12987;BME280;58897;51.960;5.582;2024-02-26T03:45:01;99781.34;;;5.05;100.00
12987;BME280;58897;51.960;5.582;2024-02-26T03:47:27;99783.75;;;4.98;100.00
12987;BME280;58897;51.960;5.582;2024-02-26T03:49:54;99789.06;;;5.08;100.00
12987;BME280;58897;51.960;5.582;2024-02-26T03:52:21;99782.19;;;5.05;100.00
12987;BME280;58897;51.960;5.582;2024-02-26T03:54:47;99777.34;;;5.09;100.00
12987;BME280;58897;51.960;5.582;2024-02-26T03:57:14;99783.84;;;5.06;100.00
12987;BME280;58897;51.960;5.582;2024-02-26T03:59:40;99784.00;;;5.05;100.00
12987;BME280;58897;51.960;5.582;2024-02-26T04:02:07;99785.69;;;5.06;100.00
12987;BME280;58897;51.960;5.582;2024-02-26T04:04:34;99785.06;;;5.12;100.00
12987;BME280;58897;51.960;5.582;2024-02-26T04:07:01;99777.88;;;5.12;100.00
12987;BME280;58897;51.960;5.582;2024-02-26T04:09:31;99786.53;;;5.24;100.00
12987;BME280;58897;51.960;5.582;2024-02-26T04:11:57;99783.47;;;5.01;100.00
12987;BME280;58897;51.960;5.582;2024-02-26T04:14:24;99780.25;;;5.15;100.00
12987;BME280;58897;51.960;5.582;2024-02-26T04:16:51;99782.31;;;5.04;100.00
12987;BME280;58897;51.960;5.582;2024-02-26T04:19:20;99781.34;;;5.05;100.00
12987;BME280;58897;51.960;5.582;2024-02-26T04:21:47;99782.41;;;4.94;100.00
12987;BME280;58897;51.960;5.582;2024-02-26T04:24:14;99787.97;;;5.00;100.00
12987;BME280;58897;51.960;5.582;2024-02-26T04:26:40;99791.66;;;4.99;100.00
12987;BME280;58897;51.960;5.582;2024-02-26T04:29:07;99791.19;;;5.04;100.00
12987;BME280;58897;51.960;5.582;2024-02-26T04:31:33;99791.78;;;4.98;100.00
12987;BME280;58897;51.960;5.582;2024-02-26T04:34:00;99799.00;;;4.97;100.00
12987;BME280;58897;51.960;5.582;2024-02-26T04:36:27;99805.81;;;4.92;100.00
12987;BME280;58897;51.960;5.582;2024-02-26T04:38:53;99800.97;;;4.95;100.00
12987;BME280;58897;51.960;5.582;2024-02-26T04:41:23;99795.63;;;4.95;100.00
12987;BME280;58897;51.960;5.582;2024-02-26T04:43:49;99806.69;;;5.00;100.00
12987;BME280;58897;51.960;5.582;2024-02-26T04:46:16;99810.69;;;4.96;100.00
12987;BME280;58897;51.960;5.582;2024-02-26T04:48:43;99809.53;;;4.99;100.00
12987;BME280;58897;51.960;5.582;2024-02-26T04:51:11;99810.06;;;4.85;100.00
12987;BME280;58897;51.960;5.582;2024-02-26T04:53:38;99809.38;;;4.83;100.00
12987;BME280;58897;51.960;5.582;2024-02-26T04:56:05;99823.44;;;4.85;100.00
12987;BME280;58897;51.960;5.582;2024-02-26T04:58:31;99816.44;;;4.84;100.00
12987;BME280;58897;51.960;5.582;2024-02-26T05:00:58;99822.16;;;4.89;100.00
12987;BME280;58897;51.960;5.582;2024-02-26T05:03:25;99822.84;;;4.91;100.00
12987;BME280;58897;51.960;5.582;2024-02-26T05:05:52;99823.91;;;4.98;100.00
12987;BME280;58897;51.960;5.582;2024-02-26T05:08:18;99826.19;;;4.93;100.00
12987;BME280;58897;51.960;5.582;2024-02-26T05:10:45;99826.28;;;4.83;100.00
12987;BME280;58897;51.960;5.582;2024-02-26T05:13:12;99830.19;;;4.89;100.00
12987;BME280;58897;51.960;5.582;2024-02-26T05:15:40;99843.47;;;4.81;100.00
12987;BME280;58897;51.960;5.582;2024-02-26T05:18:07;99839.06;;;4.89;100.00
12987;BME280;58897;51.960;5.582;2024-02-26T05:20:34;99832.47;;;4.84;100.00
12987;BME280;58897;51.960;5.582;2024-02-26T05:23:02;99824.00;;;4.88;100.00
12987;BME280;58897;51.960;5.582;2024-02-26T05:25:30;99829.03;;;4.91;100.00
12987;BME280;58897;51.960;5.582;2024-02-26T05:27:57;99829.34;;;4.88;100.00
12987;BME280;58897;51.960;5.582;2024-02-26T05:30:24;99839.38;;;4.86;100.00
12987;BME280;58897;51.960;5.582;2024-02-26T05:32:50;99843.03;;;4.85;100.00
12987;BME280;58897;51.960;5.582;2024-02-26T05:35:17;99831.09;;;4.80;100.00
12987;BME280;58897;51.960;5.582;2024-02-26T05:37:44;99843.03;;;4.85;100.00
12987;BME280;58897;51.960;5.582;2024-02-26T05:40:11;99841.50;;;4.83;100.00
12987;BME280;58897;51.960;5.582;2024-02-26T05:42:38;99844.16;;;4.83;100.00
12987;BME280;58897;51.960;5.582;2024-02-26T05:45:05;99857.41;;;4.84;100.00
12987;BME280;58897;51.960;5.582;2024-02-26T05:47:33;99854.88;;;4.83;100.00
12987;BME280;58897;51.960;5.582;2024-02-26T05:50:00;99856.09;;;4.88;100.00
12987;BME280;58897;51.960;5.582;2024-02-26T05:52:27;99854.88;;;4.83;100.00
12987;BME280;58897;51.960;5.582;2024-02-26T05:54:55;99854.28;;;4.89;100.00
12987;BME280;58897;51.960;5.582;2024-02-26T05:57:22;99854.56;;;4.86;100.00
12987;BME280;58897;51.960;5.582;2024-02-26T05:59:49;99861.06;;;4.83;100.00
12987;BME280;58897;51.960;5.582;2024-02-26T06:02:16;99871.78;;;4.83;100.00
12987;BME280;58897;51.960;5.582;2024-02-26T06:04:42;99872.91;;;4.81;100.00
12987;BME280;58897;51.960;5.582;2024-02-26T06:07:09;99871.19;;;4.89;100.00
12987;BME280;58897;51.960;5.582;2024-02-26T06:09:35;99865.34;;;4.76;100.00
12987;BME280;58897;51.960;5.582;2024-02-26T06:12:02;99857.44;;;4.75;100.00
12987;BME280;58897;51.960;5.582;2024-02-26T06:14:29;99873.81;;;4.72;100.00
12987;BME280;58897;51.960;5.582;2024-02-26T06:16:55;99868.69;;;4.78;100.00
12987;BME280;58897;51.960;5.582;2024-02-26T06:19:22;99872.63;;;4.84;100.00
12987;BME280;58897;51.960;5.582;2024-02-26T06:21:49;99878.94;;;4.83;100.00
12987;BME280;58897;51.960;5.582;2024-02-26T06:24:16;99890.50;;;4.83;100.00
12987;BME280;58897;51.960;5.582;2024-02-26T06:26:43;99891.66;;;4.81;100.00
12987;BME280;58897;51.960;5.582;2024-02-26T06:29:09;99898.91;;;4.88;100.00
12987;BME280;58897;51.960;5.582;2024-02-26T06:31:36;99891.47;;;4.82;100.00
12987;BME280;58897;51.960;5.582;2024-02-26T06:34:03;99890.28;;;4.77;100.00
12987;BME280;58897;51.960;5.582;2024-02-26T06:36:30;99906.41;;;4.85;100.00
12987;BME280;58897;51.960;5.582;2024-02-26T06:38:58;99897.00;;;4.81;100.00
12987;BME280;58897;51.960;5.582;2024-02-26T06:41:25;99899.66;;;4.81;100.00
12987;BME280;58897;51.960;5.582;2024-02-26T06:43:54;99903.59;;;4.86;100.00
12987;BME280;58897;51.960;5.582;2024-02-26T06:46:21;99901.03;;;4.85;100.00
12987;BME280;58897;51.960;5.582;2024-02-26T06:48:48;99902.59;;;4.87;100.00
12987;BME280;58897;51.960;5.582;2024-02-26T06:51:20;99913.06;;;4.81;100.00
12987;BME280;58897;51.960;5.582;2024-02-26T06:53:46;99910.78;;;4.86;100.00
12987;BME280;58897;51.960;5.582;2024-02-26T06:56:13;99914.88;;;4.80;100.00
12987;BME280;58897;51.960;5.582;2024-02-26T06:58:40;99913.16;;;4.89;100.00
12987;BME280;58897;51.960;5.582;2024-02-26T07:01:06;99918.50;;;4.89;100.00
12987;BME280;58897;51.960;5.582;2024-02-26T07:03:34;99919.66;;;4.86;100.00
12987;BME280;58897;51.960;5.582;2024-02-26T07:06:01;99923.75;;;4.81;100.00
12987;BME280;58897;51.960;5.582;2024-02-26T07:08:28;99937.81;;;4.83;100.00
12987;BME280;58897;51.960;5.582;2024-02-26T07:10:55;99943.03;;;4.84;100.00
12987;BME280;58897;51.960;5.582;2024-02-26T07:13:22;99944.41;;;4.88;100.00
12987;BME280;58897;51.960;5.582;2024-02-26T07:15:48;99954.44;;;4.86;100.00
12987;BME280;58897;51.960;5.582;2024-02-26T07:18:15;99955.13;;;4.88;100.00
12987;BME280;58897;51.960;5.582;2024-02-26T07:20:42;99959.03;;;4.94;100.00
12987;BME280;58897;51.960;5.582;2024-02-26T07:23:09;99958.25;;;4.84;100.00
12987;BME280;58897;51.960;5.582;2024-02-26T07:25:35;99966.72;;;4.79;100.00
12987;BME280;58897;51.960;5.582;2024-02-26T07:28:03;99964.75;;;4.81;100.00
12987;BME280;58897;51.960;5.582;2024-02-26T07:30:29;99969.25;;;4.81;100.00
12987;BME280;58897;51.960;5.582;2024-02-26T07:32:56;99966.56;;;4.81;100.00
12987;BME280;58897;51.960;5.582;2024-02-26T07:35:23;99970.22;;;4.80;100.00
12987;BME280;58897;51.960;5.582;2024-02-26T07:37:50;99960.53;;;4.79;100.00
12987;BME280;58897;51.960;5.582;2024-02-26T07:40:17;99966.16;;;4.76;100.00
12987;BME280;58897;51.960;5.582;2024-02-26T07:42:43;99980.25;;;4.78;100.00
12987;BME280;58897;51.960;5.582;2024-02-26T07:45:10;99985.41;;;4.89;100.00
12987;BME280;58897;51.960;5.582;2024-02-26T07:47:37;99982.22;;;4.76;100.00
12987;BME280;58897;51.960;5.582;2024-02-26T07:50:08;99982.47;;;4.82;100.00
12987;BME280;58897;51.960;5.582;2024-02-26T07:52:35;99983.03;;;4.86;100.00
12987;BME280;58897;51.960;5.582;2024-02-26T07:55:02;99994.97;;;4.91;100.00
12987;BME280;58897;51.960;5.582;2024-02-26T07:57:33;99988.38;;;4.86;100.00
12987;BME280;58897;51.960;5.582;2024-02-26T08:00:03;100000.16;;;5.03;100.00
12987;BME280;58897;51.960;5.582;2024-02-26T08:02:30;100002.31;;;4.89;100.00
12987;BME280;58897;51.960;5.582;2024-02-26T08:04:56;99992.75;;;4.87;100.00
12987;BME280;58897;51.960;5.582;2024-02-26T08:07:23;100003.88;;;4.82;100.00
12987;BME280;58897;51.960;5.582;2024-02-26T08:09:50;100011.78;;;4.84;100.00
12987;BME280;58897;51.960;5.582;2024-02-26T08:12:17;100013.03;;;4.80;100.00
12987;BME280;58897;51.960;5.582;2024-02-26T08:14:43;100023.56;;;4.91;100.00
12987;BME280;58897;51.960;5.582;2024-02-26T08:17:10;100028.50;;;4.86;100.00
12987;BME280;58897;51.960;5.582;2024-02-26T08:19:37;100029.94;;;4.80;100.00
12987;BME280;58897;51.960;5.582;2024-02-26T08:22:03;100029.66;;;4.83;100.00
12987;BME280;58897;51.960;5.582;2024-02-26T08:24:30;100028.69;;;4.84;100.00
12987;BME280;58897;51.960;5.582;2024-02-26T08:26:57;100028.50;;;4.86;100.00
12987;BME280;58897;51.960;5.582;2024-02-26T08:29:24;100031.88;;;4.88;100.00
12987;BME280;58897;51.960;5.582;2024-02-26T08:31:50;100040.75;;;4.88;100.00
12987;BME280;58897;51.960;5.582;2024-02-26T08:34:17;100035.41;;;4.88;100.00
12987;BME280;58897;51.960;5.582;2024-02-26T08:36:44;100039.50;;;4.92;100.00
12987;BME280;58897;51.960;5.582;2024-02-26T08:39:11;100046.13;;;4.88;100.00
12987;BME280;58897;51.960;5.582;2024-02-26T08:41:40;100048.78;;;4.88;100.00
12987;BME280;58897;51.960;5.582;2024-02-26T08:44:06;100046.06;;;4.98;100.00
12987;BME280;58897;51.960;5.582;2024-02-26T08:46:33;100053.69;;;4.93;100.00
12987;BME280;58897;51.960;5.582;2024-02-26T08:49:00;100061.72;;;4.93;100.00
12987;BME280;58897;51.960;5.582;2024-02-26T08:51:27;100058.75;;;4.96;100.00
12987;BME280;58897;51.960;5.582;2024-02-26T08:53:54;100063.31;;;4.86;100.00
12987;BME280;58897;51.960;5.582;2024-02-26T08:56:21;100066.09;;;4.94;100.00
12987;BME280;58897;51.960;5.582;2024-02-26T08:58:48;100067.63;;;4.96;100.00
12987;BME280;58897;51.960;5.582;2024-02-26T09:01:20;100079.03;;;4.98;100.00
12987;BME280;58897;51.960;5.582;2024-02-26T09:03:47;100080.91;;;4.88;100.00
12987;BME280;58897;51.960;5.582;2024-02-26T09:06:15;100079.31;;;4.95;100.00
12987;BME280;58897;51.960;5.582;2024-02-26T09:08:42;100093.84;;;4.93;100.00
12987;BME280;58897;51.960;5.582;2024-02-26T09:11:08;100085.63;;;5.04;100.00
12987;BME280;58897;51.960;5.582;2024-02-26T09:13:36;100090.88;;;5.06;100.00
12987;BME280;58897;51.960;5.582;2024-02-26T09:16:04;100093.09;;;5.00;100.00
12987;BME280;58897;51.960;5.582;2024-02-26T09:18:31;100099.72;;;5.06;100.00
12987;BME280;58897;51.960;5.582;2024-02-26T09:20:58;100101.97;;;5.11;100.00
12987;BME280;58897;51.960;5.582;2024-02-26T09:23:24;100095.09;;;5.08;100.00
12987;BME280;58897;51.960;5.582;2024-02-26T09:25:51;100104.09;;;5.07;100.00
12987;BME280;58897;51.960;5.582;2024-02-26T09:28:18;100104.66;;;5.11;100.00
12987;BME280;58897;51.960;5.582;2024-02-26T09:30:44;100109.41;;;5.17;100.00
12987;BME280;58897;51.960;5.582;2024-02-26T09:33:11;100098.47;;;5.00;100.00
12987;BME280;58897;51.960;5.582;2024-02-26T09:35:39;100109.44;;;5.07;100.00
12987;BME280;58897;51.960;5.582;2024-02-26T09:38:06;100124.22;;;5.11;100.00
12987;BME280;58897;51.960;5.582;2024-02-26T09:40:35;100124.25;;;5.02;100.00
12987;BME280;58897;51.960;5.582;2024-02-26T09:43:04;100134.38;;;5.08;100.00
12987;BME280;58897;51.960;5.582;2024-02-26T09:45:32;100134.41;;;4.98;100.00
12987;BME280;58897;51.960;5.582;2024-02-26T09:48:00;100137.06;;;4.98;100.00
12987;BME280;58897;51.960;5.582;2024-02-26T09:50:29;100140.31;;;5.02;100.00
12987;BME280;58897;51.960;5.582;2024-02-26T09:52:56;100141.59;;;4.97;100.00
12987;BME280;58897;51.960;5.582;2024-02-26T09:55:26;100135.13;;;5.00;100.00
12987;BME280;58897;51.960;5.582;2024-02-26T09:57:52;100150.47;;;4.98;100.00
12987;BME280;58897;51.960;5.582;2024-02-26T10:00:21;100141.44;;;4.99;100.00
12987;BME280;58897;51.960;5.582;2024-02-26T10:02:48;100151.88;;;5.02;100.00
12987;BME280;58897;51.960;5.582;2024-02-26T10:05:18;100153.97;;;4.98;100.00
12987;BME280;58897;51.960;5.582;2024-02-26T10:07:49;100167.09;;;5.02;100.00
12987;BME280;58897;51.960;5.582;2024-02-26T10:10:17;100155.13;;;5.06;100.00
12987;BME280;58897;51.960;5.582;2024-02-26T10:12:44;100165.69;;;4.97;100.00
12987;BME280;58897;51.960;5.582;2024-02-26T10:15:10;100166.81;;;5.05;100.00
12987;BME280;58897;51.960;5.582;2024-02-26T10:17:37;100162.56;;;5.02;100.00
12987;BME280;58897;51.960;5.582;2024-02-26T10:20:19;100169.63;;;5.03;100.00
12987;BME280;58897;51.960;5.582;2024-02-26T10:22:50;100173.53;;;5.09;100.00
12987;BME280;58897;51.960;5.582;2024-02-26T10:25:18;100173.53;;;5.09;100.00
12987;BME280;58897;51.960;5.582;2024-02-26T10:27:45;100177.66;;;5.03;100.00
12987;BME280;58897;51.960;5.582;2024-02-26T10:30:20;100194.13;;;5.08;100.00
12987;BME280;58897;51.960;5.582;2024-02-26T10:32:51;100191.72;;;5.15;100.00
12987;BME280;58897;51.960;5.582;2024-02-26T10:35:19;100197.34;;;5.12;100.00
12987;BME280;58897;51.960;5.582;2024-02-26T10:37:49;100200.88;;;5.12;100.00
12987;BME280;58897;51.960;5.582;2024-02-26T10:40:16;100210.47;;;5.15;100.00
12987;BME280;58897;51.960;5.582;2024-02-26T10:42:43;100208.47;;;5.17;100.00
12987;BME280;58897;51.960;5.582;2024-02-26T10:45:11;100217.63;;;5.14;100.00
12987;BME280;58897;51.960;5.582;2024-02-26T10:47:40;100228.91;;;5.18;100.00
12987;BME280;58897;51.960;5.582;2024-02-26T10:50:07;100226.41;;;5.16;100.00
12987;BME280;58897;51.960;5.582;2024-02-26T10:52:36;100232.03;;;5.13;100.00
12987;BME280;58897;51.960;5.582;2024-02-26T10:55:04;100238.22;;;5.14;100.00
12987;BME280;58897;51.960;5.582;2024-02-26T10:57:39;100242.31;;;5.18;100.00
12987;BME280;58897;51.960;5.582;2024-02-26T11:00:08;100240.31;;;5.20;100.00
12987;BME280;58897;51.960;5.582;2024-02-26T11:02:40;100248.91;;;5.14;100.00
12987;BME280;58897;51.960;5.582;2024-02-26T11:05:07;100245.13;;;5.16;100.00
12987;BME280;58897;51.960;5.582;2024-02-26T11:07:35;100264.97;;;5.14;100.00
12987;BME280;58897;51.960;5.582;2024-02-26T11:10:05;100255.94;;;5.24;100.00
12987;BME280;58897;51.960;5.582;2024-02-26T11:12:35;100263.44;;;5.21;100.00
12987;BME280;58897;51.960;5.582;2024-02-26T11:15:04;100262.03;;;5.26;100.00
12987;BME280;58897;51.960;5.582;2024-02-26T11:17:31;100258.63;;;5.24;100.00
12987;BME280;58897;51.960;5.582;2024-02-26T11:19:59;100262.16;;;5.25;100.00
12987;BME280;58897;51.960;5.582;2024-02-26T11:22:26;100279.22;;;5.24;100.00
12987;BME280;58897;51.960;5.582;2024-02-26T11:24:54;100277.38;;;5.24;100.00
12987;BME280;58897;51.960;5.582;2024-02-26T11:27:24;100281.31;;;5.30;100.00
12987;BME280;58897;51.960;5.582;2024-02-26T11:29:52;100295.97;;;5.35;100.00
12987;BME280;58897;51.960;5.582;2024-02-26T11:32:21;100286.69;;;5.20;100.00
12987;BME280;58897;51.960;5.582;2024-02-26T11:34:48;100292.31;;;5.27;100.00
12987;BME280;58897;51.960;5.582;2024-02-26T11:37:16;100299.66;;;5.25;100.00
12987;BME280;58897;51.960;5.582;2024-02-26T11:39:45;100294.28;;;5.25;100.00
12987;BME280;58897;51.960;5.582;2024-02-26T11:42:15;100296.44;;;5.21;100.00
12987;BME280;58897;51.960;5.582;2024-02-26T11:44:42;100299.09;;;5.21;100.00
12987;BME280;58897;51.960;5.582;2024-02-26T11:47:14;100299.78;;;5.33;100.00
12987;BME280;58897;51.960;5.582;2024-02-26T11:49:44;100303.03;;;5.27;100.00
12987;BME280;58897;51.960;5.582;2024-02-26T11:52:10;100305.41;;;5.30;100.00
12987;BME280;58897;51.960;5.582;2024-02-26T11:54:50;100306.97;;;5.32;100.00
12987;BME280;58897;51.960;5.582;2024-02-26T12:00:18;100301.88;;;5.29;100.00
12987;BME280;58897;51.960;5.582;2024-02-26T12:02:50;100307.13;;;5.31;100.00
12987;BME280;58897;51.960;5.582;2024-02-26T12:05:25;100311.50;;;5.32;100.00
12987;BME280;58897;51.960;5.582;2024-02-26T12:07:56;100317.69;;;5.32;100.00
12987;BME280;58897;51.960;5.582;2024-02-26T12:10:39;100305.56;;;5.28;100.00
12987;BME280;58897;51.960;5.582;2024-02-26T12:13:13;100321.34;;;5.41;100.00
12987;BME280;58897;51.960;5.582;2024-02-26T12:18:22;100328.69;;;5.39;100.00
12987;BME280;58897;51.960;5.582;2024-02-26T12:21:02;100335.59;;;5.41;100.00
12987;BME280;58897;51.960;5.582;2024-02-26T12:23:30;100329.09;;;5.44;100.00
12987;BME280;58897;51.960;5.582;2024-02-26T12:26:00;100331.22;;;5.40;100.00
12987;BME280;58897;51.960;5.582;2024-02-26T12:28:30;100334.75;;;5.41;100.00
12987;BME280;58897;51.960;5.582;2024-02-26T12:30:56;100336.97;;;5.45;100.00
12987;BME280;58897;51.960;5.582;2024-02-26T12:33:26;100342.78;;;5.31;100.00
12987;BME280;58897;51.960;5.582;2024-02-26T12:35:55;100349.53;;;5.35;100.00
12987;BME280;58897;51.960;5.582;2024-02-26T12:38:21;100348.97;;;5.41;100.00
12987;BME280;58897;51.960;5.582;2024-02-26T12:40:48;100350.25;;;5.47;100.00
12987;BME280;58897;51.960;5.582;2024-02-26T12:43:15;100343.06;;;5.47;100.00
12987;BME280;58897;51.960;5.582;2024-02-26T12:45:43;100342.06;;;5.48;100.00
12987;BME280;58897;51.960;5.582;2024-02-26T12:48:14;100354.03;;;5.54;100.00
12987;BME280;58897;51.960;5.582;2024-02-26T12:50:45;100354.03;;;5.54;100.00
12987;BME280;58897;51.960;5.582;2024-02-26T12:53:12;100363.66;;;5.47;100.00
12987;BME280;58897;51.960;5.582;2024-02-26T12:55:38;100364.50;;;5.47;100.00
12987;BME280;58897;51.960;5.582;2024-02-26T12:58:06;100363.91;;;5.53;100.00
12987;BME280;58897;51.960;5.582;2024-02-26T13:00:33;100361.09;;;5.45;100.00
12987;BME280;58897;51.960;5.582;2024-02-26T13:03:00;100368.16;;;5.46;100.00